Pike, New Hampshire
Current Conditions -  °F | °C
As of 12:15 PM on Friday 19 Dec 2014 (Local Time) from K1P1 Reporting Station
Overcast Overcast  
Wind Chill: 19°   Ceiling: 2600
Heat Index: 29°   Visibility: 10mi
Dew Point: 25°   Wind: 13mph
Humidity: 86%   Direction: 290°WNW
Pressure: 29.95"   Gusts: 16mph
Location:  44.03°N, 72.01°W
Report Text: K1P1 191715Z AUTO 29011G14KT 10SM OVC026 M02/M04 A2995 RMK AO2 T10161037
Loading
Personal Weather Stations






























Interactive Weather Map New forecast layout! Learn more

10-Day Weather Forecast

Advertisements
Track Severe Weather on mobile